createdAt,value
2017-12-05T00:00:22.706Z,866.21
2017-12-05T00:01:22.574Z,866.20
2017-12-05T00:02:22.439Z,866.21
2017-12-05T00:03:22.308Z,866.24
2017-12-05T00:04:22.172Z,866.19
2017-12-05T00:05:22.041Z,866.17
2017-12-05T00:06:21.909Z,866.19
2017-12-05T00:07:21.775Z,866.23
2017-12-05T00:08:21.641Z,866.25
2017-12-05T00:09:21.508Z,866.29
2017-12-05T00:10:21.374Z,866.30
2017-12-05T00:11:21.244Z,866.29
2017-12-05T00:12:21.111Z,866.30
2017-12-05T00:13:20.976Z,866.36
2017-12-05T00:14:20.846Z,866.35
2017-12-05T00:15:20.712Z,866.34
2017-12-05T00:16:20.588Z,866.34
2017-12-05T00:17:20.446Z,866.35
2017-12-05T00:18:20.311Z,866.40
2017-12-05T00:19:20.180Z,866.37
2017-12-05T00:20:20.048Z,866.39
2017-12-05T00:21:19.913Z,866.40
2017-12-05T00:22:19.786Z,866.44
2017-12-05T00:23:19.649Z,866.40
2017-12-05T00:24:19.517Z,866.39
2017-12-05T00:25:19.382Z,866.33
2017-12-05T00:26:19.247Z,866.39
2017-12-05T00:27:19.118Z,866.37
2017-12-05T00:28:18.985Z,866.41
2017-12-05T00:29:18.851Z,866.43
2017-12-05T00:30:18.718Z,866.38
2017-12-05T00:31:18.586Z,866.33
2017-12-05T00:32:18.452Z,866.35
2017-12-05T00:33:18.320Z,866.33
2017-12-05T00:34:18.193Z,866.31
2017-12-05T00:35:18.053Z,866.35
2017-12-05T00:36:17.921Z,866.32
2017-12-05T00:37:17.788Z,866.35
2017-12-05T00:38:17.657Z,866.34
2017-12-05T00:39:17.522Z,866.39
2017-12-05T00:40:17.392Z,866.41
2017-12-05T00:41:17.258Z,866.41
2017-12-05T00:42:17.125Z,866.41
2017-12-05T00:43:16.996Z,866.42
2017-12-05T00:44:16.858Z,866.36
2017-12-05T00:45:16.727Z,866.37
2017-12-05T00:46:16.591Z,866.40
2017-12-05T00:47:16.466Z,866.38
2017-12-05T00:48:16.327Z,866.42
2017-12-05T00:49:16.194Z,866.42
2017-12-05T00:50:16.060Z,866.43
2017-12-05T00:51:15.948Z,866.43
2017-12-05T00:52:15.794Z,866.44
2017-12-05T00:53:15.663Z,866.45
2017-12-05T00:54:15.529Z,866.44
2017-12-05T00:55:15.396Z,866.42
2017-12-05T00:56:15.267Z,866.48
2017-12-05T00:57:15.129Z,866.47
2017-12-05T00:58:14.995Z,866.49
2017-12-05T00:59:14.864Z,866.44
2017-12-05T01:00:14.731Z,866.47
2017-12-05T01:01:14.596Z,866.45
2017-12-05T01:02:14.463Z,866.47
2017-12-05T01:03:14.336Z,866.51
2017-12-05T01:04:14.207Z,866.53
2017-12-05T01:05:14.116Z,866.56
2017-12-05T01:06:13.934Z,866.52
2017-12-05T01:07:13.808Z,866.55
2017-12-05T01:08:13.666Z,866.57
2017-12-05T01:09:13.536Z,866.58
2017-12-05T01:10:13.402Z,866.58
2017-12-05T01:11:13.269Z,866.58
2017-12-05T01:12:13.136Z,866.54
2017-12-05T01:13:13.002Z,866.57
2017-12-05T01:14:12.869Z,866.60
2017-12-05T01:15:12.744Z,866.61
2017-12-05T01:16:12.603Z,866.58
2017-12-05T01:17:12.472Z,866.58
2017-12-05T01:18:12.340Z,866.56
2017-12-05T01:19:12.206Z,866.54
2017-12-05T01:20:12.075Z,866.52
2017-12-05T01:21:11.944Z,866.53
2017-12-05T01:22:11.806Z,866.54
2017-12-05T01:23:11.674Z,866.57
2017-12-05T01:24:11.549Z,866.60
2017-12-05T01:25:11.407Z,866.65
2017-12-05T01:26:11.273Z,866.61
2017-12-05T01:27:11.143Z,866.59
2017-12-05T01:28:11.009Z,866.60
2017-12-05T01:29:10.874Z,866.60
2017-12-05T01:30:10.744Z,866.61
2017-12-05T01:31:10.609Z,866.64
2017-12-05T01:32:10.479Z,866.71
2017-12-05T01:33:10.343Z,866.74
2017-12-05T01:34:10.214Z,866.73
2017-12-05T01:35:10.076Z,866.71
2017-12-05T01:36:09.946Z,866.71
2017-12-05T01:37:09.810Z,866.70
2017-12-05T01:38:09.678Z,866.68
2017-12-05T01:39:09.545Z,866.68
2017-12-05T01:40:09.410Z,866.69
2017-12-05T01:41:09.287Z,866.67
2017-12-05T01:42:09.144Z,866.69
2017-12-05T01:43:09.010Z,866.66
2017-12-05T01:44:08.879Z,866.69
2017-12-05T01:45:08.745Z,866.69
2017-12-05T01:46:08.611Z,866.64
2017-12-05T01:47:08.478Z,866.64
2017-12-05T01:48:08.343Z,866.66
2017-12-05T01:49:08.214Z,866.70
2017-12-05T01:50:08.079Z,866.72
2017-12-05T01:51:07.945Z,866.75
2017-12-05T01:52:07.819Z,866.78
2017-12-05T01:53:07.678Z,866.78
2017-12-05T01:54:07.548Z,866.74
2017-12-05T01:55:07.412Z,866.75
2017-12-05T01:56:07.280Z,866.76
2017-12-05T01:57:07.147Z,866.74
2017-12-05T01:58:07.013Z,866.72
2017-12-05T01:59:06.878Z,866.72
2017-12-05T02:00:06.749Z,866.66
2017-12-05T02:01:06.619Z,866.67
2017-12-05T02:02:06.480Z,866.62
2017-12-05T02:03:06.355Z,866.62
2017-12-05T02:04:06.214Z,866.60
2017-12-05T02:05:06.081Z,866.62
2017-12-05T02:06:05.947Z,866.63
2017-12-05T02:07:05.815Z,866.64
2017-12-05T02:08:05.682Z,866.61
2017-12-05T02:09:05.547Z,866.64
2017-12-05T02:10:05.414Z,866.63
2017-12-05T02:11:05.284Z,866.61
2017-12-05T02:12:05.144Z,866.63
2017-12-05T02:13:05.014Z,866.65
2017-12-05T02:14:04.878Z,866.63
2017-12-05T02:15:04.748Z,866.64
2017-12-05T02:16:04.614Z,866.62
2017-12-05T02:17:04.479Z,866.61
2017-12-05T02:18:04.345Z,866.61
2017-12-05T02:19:04.211Z,866.62
2017-12-05T02:20:04.086Z,866.68
2017-12-05T02:21:03.973Z,866.71
2017-12-05T02:22:03.816Z,866.71
2017-12-05T02:23:03.677Z,866.73
2017-12-05T02:24:03.541Z,866.73
2017-12-05T02:25:03.409Z,866.69
2017-12-05T02:26:03.278Z,866.68
2017-12-05T02:27:03.143Z,866.71
2017-12-05T02:28:03.010Z,866.76
2017-12-05T02:29:02.879Z,866.76
2017-12-05T02:30:02.745Z,866.77
2017-12-05T02:31:02.611Z,866.77
2017-12-05T02:32:02.478Z,866.76
2017-12-05T02:33:02.345Z,866.78
2017-12-05T02:34:02.211Z,866.80
2017-12-05T02:35:02.076Z,866.82
2017-12-05T02:36:01.943Z,866.81
2017-12-05T02:37:01.810Z,866.84
2017-12-05T02:38:01.678Z,866.88
2017-12-05T02:39:01.547Z,866.88
2017-12-05T02:40:01.411Z,866.81
2017-12-05T02:41:01.278Z,866.82
2017-12-05T02:42:01.143Z,866.87
2017-12-05T02:43:01.010Z,866.84
2017-12-05T02:44:00.877Z,866.84
2017-12-05T02:45:00.743Z,866.85
2017-12-05T02:46:00.611Z,866.84
2017-12-05T02:47:00.482Z,866.84
2017-12-05T02:48:00.347Z,866.86
2017-12-05T02:49:00.209Z,866.87
2017-12-05T02:50:00.079Z,866.89
2017-12-05T02:50:59.944Z,866.90
2017-12-05T02:51:59.820Z,866.87
2017-12-05T02:52:59.677Z,866.90
2017-12-05T02:53:59.546Z,866.87
2017-12-05T02:54:59.411Z,866.90
2017-12-05T02:55:59.276Z,866.91
2017-12-05T02:56:59.148Z,866.88
2017-12-05T02:57:59.010Z,866.90
2017-12-05T02:58:58.884Z,866.94
2017-12-05T02:59:58.742Z,866.92
2017-12-05T03:00:58.611Z,866.93
2017-12-05T03:01:58.478Z,866.93
2017-12-05T03:02:58.344Z,866.95
2017-12-05T03:03:58.211Z,866.94
2017-12-05T03:04:58.073Z,866.96
2017-12-05T03:05:57.942Z,866.98
2017-12-05T03:06:57.808Z,866.95
2017-12-05T03:07:57.674Z,866.95
2017-12-05T03:08:57.542Z,866.98
2017-12-05T03:09:57.408Z,866.99
2017-12-05T03:10:57.277Z,866.98
2017-12-05T03:11:57.142Z,866.98
2017-12-05T03:12:57.007Z,866.98
2017-12-05T03:13:56.872Z,866.96
2017-12-05T03:14:56.740Z,867.02
2017-12-05T03:15:56.607Z,867.03
2017-12-05T03:16:56.472Z,867.03
2017-12-05T03:17:56.342Z,867.03
2017-12-05T03:18:56.209Z,866.96
2017-12-05T03:19:56.078Z,866.97
2017-12-05T03:20:55.938Z,867.00
2017-12-05T03:21:55.805Z,867.00
2017-12-05T03:22:55.672Z,866.94
2017-12-05T03:23:55.540Z,866.95
2017-12-05T03:24:55.406Z,866.93
2017-12-05T03:25:55.271Z,866.91
2017-12-05T03:26:55.136Z,866.90
2017-12-05T03:27:55.002Z,866.91
2017-12-05T03:28:54.870Z,866.89
2017-12-05T03:29:54.810Z,866.87
2017-12-05T03:30:54.604Z,866.90
2017-12-05T03:31:54.468Z,866.95
2017-12-05T03:32:54.334Z,866.91
2017-12-05T03:33:54.200Z,866.94
2017-12-05T03:34:54.065Z,866.90
2017-12-05T03:35:53.932Z,866.89
2017-12-05T03:36:53.796Z,866.90
2017-12-05T03:37:53.664Z,866.90
2017-12-05T03:38:53.529Z,866.88
2017-12-05T03:39:53.396Z,866.88
2017-12-05T03:40:53.261Z,866.84
2017-12-05T03:41:53.126Z,866.86
2017-12-05T03:42:52.993Z,866.85
2017-12-05T03:43:52.855Z,866.81
2017-12-05T03:44:52.723Z,866.82
2017-12-05T03:45:52.588Z,866.83
2017-12-05T03:46:52.452Z,866.83
2017-12-05T03:47:52.326Z,866.86
2017-12-05T03:48:52.186Z,866.81
2017-12-05T03:49:52.064Z,866.82
2017-12-05T03:50:51.918Z,866.81
2017-12-05T03:51:51.782Z,866.78
2017-12-05T03:52:51.650Z,866.78
2017-12-05T03:53:51.513Z,866.82
2017-12-05T03:54:51.376Z,866.81
2017-12-05T03:55:51.241Z,866.80
2017-12-05T03:56:51.109Z,866.79
2017-12-05T03:57:50.976Z,866.80
2017-12-05T03:58:50.837Z,866.84
2017-12-05T03:59:50.704Z,866.86
2017-12-05T04:00:50.571Z,866.88
2017-12-05T04:01:50.432Z,866.86
2017-12-05T04:02:50.300Z,866.85
2017-12-05T04:03:50.167Z,866.86
2017-12-05T04:04:50.031Z,866.86
2017-12-05T04:05:49.897Z,866.84
2017-12-05T04:06:49.762Z,866.86
2017-12-05T04:07:49.623Z,866.83
2017-12-05T04:08:49.492Z,866.84
2017-12-05T04:09:49.357Z,866.84
2017-12-05T04:10:49.224Z,866.85
2017-12-05T04:11:49.087Z,866.83
2017-12-05T04:12:48.954Z,866.84
2017-12-05T04:13:48.816Z,866.85
2017-12-05T04:14:48.683Z,866.84
2017-12-05T04:15:48.549Z,866.84
2017-12-05T04:16:48.412Z,866.84
2017-12-05T04:17:48.277Z,866.81
2017-12-05T04:18:48.143Z,866.85
2017-12-05T04:19:48.007Z,866.79
2017-12-05T04:20:47.870Z,866.80
2017-12-05T04:21:47.735Z,866.83
2017-12-05T04:22:47.601Z,866.80
2017-12-05T04:23:47.468Z,866.77
2017-12-05T04:24:47.339Z,866.75
2017-12-05T04:25:47.196Z,866.76
2017-12-05T04:26:47.062Z,866.79
2017-12-05T04:27:46.925Z,866.83
2017-12-05T04:28:46.791Z,866.82
2017-12-05T04:29:46.658Z,866.83
2017-12-05T04:30:46.528Z,866.83
2017-12-05T04:31:46.402Z,866.85
2017-12-05T04:32:46.255Z,866.85
2017-12-05T04:33:46.115Z,866.82
2017-12-05T04:34:45.980Z,866.84
2017-12-05T04:35:45.850Z,866.83
2017-12-05T04:36:45.710Z,866.81
2017-12-05T04:37:45.577Z,866.85
2017-12-05T04:38:45.438Z,866.83
2017-12-05T04:39:45.305Z,866.84
2017-12-05T04:40:45.169Z,866.83
2017-12-05T04:41:45.035Z,866.85
2017-12-05T04:42:44.899Z,866.88
2017-12-05T04:43:44.765Z,866.84
2017-12-05T04:44:44.629Z,866.86
2017-12-05T04:45:44.493Z,866.89
2017-12-05T04:46:44.364Z,866.87
2017-12-05T04:47:44.249Z,866.87
2017-12-05T04:48:44.088Z,866.87
2017-12-05T04:49:43.954Z,866.87
2017-12-05T04:50:43.817Z,866.90
2017-12-05T04:51:43.685Z,866.85
2017-12-05T04:52:43.548Z,866.87
2017-12-05T04:53:43.412Z,866.88
2017-12-05T04:54:43.277Z,866.90
2017-12-05T04:55:43.142Z,866.93
2017-12-05T04:56:43.007Z,866.95
2017-12-05T04:57:42.873Z,866.91
2017-12-05T04:58:42.738Z,866.95
2017-12-05T04:59:42.599Z,866.95
2017-12-05T05:00:42.464Z,867.00
2017-12-05T05:01:42.331Z,866.97
2017-12-05T05:02:42.196Z,866.98
2017-12-05T05:03:42.061Z,867.01
2017-12-05T05:04:41.929Z,867.05
2017-12-05T05:05:41.790Z,867.07
2017-12-05T05:06:41.662Z,867.07
2017-12-05T05:07:41.518Z,867.09
2017-12-05T05:08:41.385Z,867.10
2017-12-05T05:09:41.244Z,867.09
2017-12-05T05:10:41.111Z,867.06
2017-12-05T05:11:40.978Z,867.08
2017-12-05T05:12:40.840Z,867.12
2017-12-05T05:13:40.706Z,867.09
2017-12-05T05:14:40.572Z,867.10
2017-12-05T05:15:40.437Z,867.09
2017-12-05T05:16:40.300Z,867.09
2017-12-05T05:17:40.165Z,867.06
2017-12-05T05:18:40.028Z,867.07
2017-12-05T05:19:39.893Z,867.03
2017-12-05T05:20:39.771Z,867.06
2017-12-05T05:21:39.621Z,867.06
2017-12-05T05:22:39.488Z,867.07
2017-12-05T05:23:39.358Z,867.09
2017-12-05T05:24:39.215Z,867.06
2017-12-05T05:25:39.083Z,867.07
2017-12-05T05:26:38.947Z,867.04
2017-12-05T05:27:38.809Z,867.10
2017-12-05T05:28:38.675Z,867.13
2017-12-05T05:29:38.541Z,867.13
2017-12-05T05:30:38.406Z,867.11
2017-12-05T05:31:38.287Z,867.07
2017-12-05T05:32:38.143Z,867.14
2017-12-05T05:33:37.998Z,867.14
2017-12-05T05:34:37.866Z,867.18
2017-12-05T05:35:37.730Z,867.14
2017-12-05T05:36:37.592Z,867.14
2017-12-05T05:37:37.457Z,867.11
2017-12-05T05:38:37.321Z,867.13
2017-12-05T05:39:37.190Z,867.17
2017-12-05T05:40:37.052Z,867.16
2017-12-05T05:41:36.914Z,867.22
2017-12-05T05:42:36.780Z,867.23
2017-12-05T05:43:36.643Z,867.21
2017-12-05T05:44:36.508Z,867.24
2017-12-05T05:45:36.375Z,867.23
2017-12-05T05:46:36.239Z,867.27
2017-12-05T05:47:36.103Z,867.30
2017-12-05T05:48:35.973Z,867.28
2017-12-05T05:49:35.838Z,867.26
2017-12-05T05:50:35.698Z,867.27
2017-12-05T05:51:35.564Z,867.27
2017-12-05T05:52:35.426Z,867.29
2017-12-05T05:53:35.297Z,867.30
2017-12-05T05:54:35.160Z,867.29
2017-12-05T05:55:35.023Z,867.28
2017-12-05T05:56:34.894Z,867.26
2017-12-05T05:57:34.752Z,867.28
2017-12-05T05:58:34.614Z,867.27
2017-12-05T05:59:34.479Z,867.25
2017-12-05T06:00:34.343Z,867.24
2017-12-05T06:01:34.207Z,867.24
2017-12-05T06:02:34.072Z,867.21
2017-12-05T06:03:33.938Z,867.21
2017-12-05T06:04:33.806Z,867.22
2017-12-05T06:05:33.666Z,867.19
2017-12-05T06:06:33.528Z,867.20
2017-12-05T06:07:33.396Z,867.24
2017-12-05T06:08:33.257Z,867.22
2017-12-05T06:09:33.123Z,867.21
2017-12-05T06:10:32.987Z,867.19
2017-12-05T06:11:32.849Z,867.20
2017-12-05T06:12:32.714Z,867.23
2017-12-05T06:13:32.581Z,867.24
2017-12-05T06:14:32.445Z,867.25
2017-12-05T06:15:32.310Z,867.30
2017-12-05T06:16:32.173Z,867.32
2017-12-05T06:17:32.039Z,867.29
2017-12-05T06:18:31.901Z,867.28
2017-12-05T06:19:31.767Z,867.33
2017-12-05T06:20:31.640Z,867.38
2017-12-05T06:21:31.499Z,867.40
2017-12-05T06:22:31.360Z,867.38
2017-12-05T06:23:31.230Z,867.41
2017-12-05T06:24:31.085Z,867.38
2017-12-05T06:25:30.957Z,867.31
2017-12-05T06:26:30.815Z,867.31
2017-12-05T06:27:30.680Z,867.29
2017-12-05T06:28:30.550Z,867.33
2017-12-05T06:29:30.409Z,867.30
2017-12-05T06:30:30.272Z,867.31
2017-12-05T06:31:30.140Z,867.32
2017-12-05T06:32:30.005Z,867.38
2017-12-05T06:33:29.876Z,867.38
2017-12-05T06:34:29.729Z,867.36
2017-12-05T06:35:29.593Z,867.40
2017-12-05T06:36:29.457Z,867.44
2017-12-05T06:37:29.325Z,867.46
2017-12-05T06:38:29.184Z,867.48
2017-12-05T06:39:29.054Z,867.48
2017-12-05T06:40:28.912Z,867.55
2017-12-05T06:41:28.782Z,867.53
2017-12-05T06:42:28.643Z,867.57
2017-12-05T06:43:28.511Z,867.60
2017-12-05T06:44:28.375Z,867.59
2017-12-05T06:45:28.237Z,867.56
2017-12-05T06:46:28.100Z,867.58
2017-12-05T06:47:27.964Z,867.53
2017-12-05T06:48:27.828Z,867.49
2017-12-05T06:49:27.691Z,867.47
2017-12-05T06:50:27.558Z,867.46
2017-12-05T06:51:27.421Z,867.51
2017-12-05T06:52:27.286Z,867.61
2017-12-05T06:53:27.151Z,867.59
2017-12-05T06:54:27.016Z,867.60
2017-12-05T06:55:26.878Z,867.56
2017-12-05T06:56:26.740Z,867.54
2017-12-05T06:57:26.606Z,867.56
2017-12-05T06:58:26.472Z,867.56
2017-12-05T06:59:26.334Z,867.62
2017-12-05T07:00:26.201Z,867.62
2017-12-05T07:01:26.070Z,867.63
2017-12-05T07:02:25.933Z,867.61
2017-12-05T07:03:25.791Z,867.68
2017-12-05T07:04:25.656Z,867.70
2017-12-05T07:05:25.521Z,867.77
2017-12-05T07:06:25.383Z,867.73
2017-12-05T07:07:25.249Z,867.73
2017-12-05T07:08:25.113Z,867.72
2017-12-05T07:09:24.976Z,867.73
2017-12-05T07:10:24.838Z,867.73
2017-12-05T07:11:24.709Z,867.75
2017-12-05T07:12:24.569Z,867.76
2017-12-05T07:13:24.431Z,867.79
2017-12-05T07:14:24.295Z,867.76
2017-12-05T07:15:24.160Z,867.81
2017-12-05T07:16:24.025Z,867.81
2017-12-05T07:17:24.019Z,867.83
2017-12-05T07:18:23.756Z,867.79
2017-12-05T07:19:23.618Z,867.81
2017-12-05T07:20:23.481Z,867.83
2017-12-05T07:21:23.341Z,867.87
2017-12-05T07:22:23.215Z,867.87
2017-12-05T07:23:23.079Z,867.91
2017-12-05T07:24:22.936Z,867.89
2017-12-05T07:25:22.801Z,867.91
2017-12-05T07:26:22.667Z,867.95
2017-12-05T07:27:22.530Z,867.95
2017-12-05T07:28:22.446Z,867.96
2017-12-05T07:29:22.258Z,867.99
2017-12-05T07:30:22.134Z,867.95
2017-12-05T07:31:21.985Z,868.00
2017-12-05T07:32:21.850Z,868.03
2017-12-05T07:33:21.715Z,868.05
2017-12-05T07:34:21.577Z,868.07
2017-12-05T07:35:21.444Z,868.07
2017-12-05T07:36:21.307Z,868.06
2017-12-05T07:37:21.170Z,868.10
2017-12-05T07:38:21.034Z,868.13
2017-12-05T07:39:20.900Z,868.07
2017-12-05T07:40:20.765Z,868.08
2017-12-05T07:41:20.644Z,868.12
2017-12-05T07:42:20.491Z,868.12
2017-12-05T07:43:20.356Z,868.13
2017-12-05T07:44:20.218Z,868.16
2017-12-05T07:45:20.082Z,868.13
2017-12-05T07:46:19.948Z,868.17
2017-12-05T07:47:19.812Z,868.20
2017-12-05T07:48:19.675Z,868.23
2017-12-05T07:49:19.544Z,868.21
2017-12-05T07:50:19.402Z,868.20
2017-12-05T07:51:19.271Z,868.19
2017-12-05T07:52:19.158Z,868.25
2017-12-05T07:53:19.030Z,868.25
2017-12-05T07:54:18.863Z,868.25
2017-12-05T07:55:18.743Z,868.22
2017-12-05T07:56:18.586Z,868.22
2017-12-05T07:57:18.453Z,868.21
2017-12-05T07:58:18.317Z,868.20
2017-12-05T07:59:18.182Z,868.22
2017-12-05T08:00:18.047Z,868.25
2017-12-05T08:01:17.910Z,868.25
2017-12-05T08:02:17.774Z,868.23
2017-12-05T08:03:17.648Z,868.23
2017-12-05T08:04:17.500Z,868.23
2017-12-05T08:05:17.370Z,868.21
2017-12-05T08:06:17.228Z,868.24
2017-12-05T08:07:17.096Z,868.27
2017-12-05T08:08:16.961Z,868.29
2017-12-05T08:09:16.823Z,868.31
2017-12-05T08:10:16.688Z,868.30
2017-12-05T08:11:16.552Z,868.32
2017-12-05T08:12:16.416Z,868.28
2017-12-05T08:13:16.279Z,868.30
2017-12-05T08:14:16.145Z,868.31
2017-12-05T08:15:16.014Z,868.30
2017-12-05T08:16:15.873Z,868.31
2017-12-05T08:17:15.737Z,868.34
2017-12-05T08:18:15.604Z,868.33
2017-12-05T08:19:15.470Z,868.33
2017-12-05T08:20:15.332Z,868.36
2017-12-05T08:21:15.195Z,868.36
2017-12-05T08:22:15.059Z,868.37
2017-12-05T08:23:14.921Z,868.36
2017-12-05T08:24:14.786Z,868.39
2017-12-05T08:25:14.654Z,868.37
2017-12-05T08:26:14.523Z,868.42
2017-12-05T08:27:14.381Z,868.43
2017-12-05T08:28:14.253Z,868.42
2017-12-05T08:29:14.109Z,868.43
2017-12-05T08:30:13.972Z,868.43
2017-12-05T08:31:13.839Z,868.46
2017-12-05T08:32:13.700Z,868.48
2017-12-05T08:33:13.562Z,868.47
2017-12-05T08:34:13.430Z,868.50
2017-12-05T08:35:13.293Z,868.51
2017-12-05T08:36:13.159Z,868.49
2017-12-05T08:37:13.024Z,868.53
2017-12-05T08:38:12.888Z,868.49
2017-12-05T08:39:12.753Z,868.52
2017-12-05T08:40:12.619Z,868.52
2017-12-05T08:41:12.482Z,868.54
2017-12-05T08:42:12.346Z,868.53
2017-12-05T08:43:12.209Z,868.54
2017-12-05T08:44:12.091Z,868.55
2017-12-05T08:45:11.937Z,868.57
2017-12-05T08:46:11.803Z,868.58
2017-12-05T08:47:11.667Z,868.55
2017-12-05T08:48:11.533Z,868.54
2017-12-05T08:49:11.398Z,868.56
2017-12-05T08:50:11.262Z,868.56
2017-12-05T08:51:11.124Z,868.53
2017-12-05T08:52:10.991Z,868.50
2017-12-05T08:53:10.857Z,868.52
2017-12-05T08:54:10.721Z,868.49
2017-12-05T08:55:10.586Z,868.51
2017-12-05T08:56:10.447Z,868.48
2017-12-05T08:57:10.311Z,868.52
2017-12-05T08:58:10.180Z,868.51
2017-12-05T08:59:10.043Z,868.52
2017-12-05T09:00:09.925Z,868.52
2017-12-05T09:01:09.774Z,868.51
2017-12-05T09:02:09.633Z,868.46
2017-12-05T09:03:09.498Z,868.48
2017-12-05T09:04:09.363Z,868.50
2017-12-05T09:05:09.227Z,868.52
2017-12-05T09:06:09.094Z,868.49
2017-12-05T09:07:08.959Z,868.50
2017-12-05T09:08:08.822Z,868.49
2017-12-05T09:09:08.687Z,868.50
2017-12-05T09:10:08.553Z,868.47
2017-12-05T09:11:08.417Z,868.50
2017-12-05T09:12:08.281Z,868.49
2017-12-05T09:13:08.145Z,868.48
2017-12-05T09:14:08.011Z,868.47
2017-12-05T09:15:07.875Z,868.44
2017-12-05T09:16:07.742Z,868.45
2017-12-05T09:17:07.604Z,868.39
2017-12-05T09:18:07.469Z,868.41
2017-12-05T09:19:07.334Z,868.41
2017-12-05T09:20:07.196Z,868.43
2017-12-05T09:21:07.060Z,868.42
2017-12-05T09:22:06.928Z,868.45
2017-12-05T09:23:06.792Z,868.41
2017-12-05T09:24:06.657Z,868.43
2017-12-05T09:25:06.526Z,868.41
2017-12-05T09:26:06.386Z,868.46
2017-12-05T09:27:06.253Z,868.47
2017-12-05T09:28:06.117Z,868.48
2017-12-05T09:29:05.982Z,868.48
2017-12-05T09:30:05.850Z,868.46
2017-12-05T09:31:05.727Z,868.47
2017-12-05T09:32:05.579Z,868.48
2017-12-05T09:33:05.445Z,868.49
2017-12-05T09:34:05.309Z,868.44
2017-12-05T09:35:05.177Z,868.47
2017-12-05T09:36:05.052Z,868.48
2017-12-05T09:37:04.909Z,868.50
2017-12-05T09:38:04.776Z,868.45
2017-12-05T09:39:04.643Z,868.46
2017-12-05T09:40:04.507Z,868.46
2017-12-05T09:41:04.376Z,868.42
2017-12-05T09:42:04.284Z,868.45
2017-12-05T09:43:04.122Z,868.42
2017-12-05T09:44:04.008Z,868.41
2017-12-05T09:45:03.849Z,868.36
2017-12-05T09:46:03.710Z,868.36
2017-12-05T09:47:03.580Z,868.34
2017-12-05T09:48:03.445Z,868.35
2017-12-05T09:49:03.312Z,868.33
2017-12-05T09:50:03.182Z,868.27
2017-12-05T09:51:03.054Z,868.29
2017-12-05T09:52:02.949Z,868.26
2017-12-05T09:53:02.803Z,868.26
2017-12-05T09:54:02.655Z,868.29
2017-12-05T09:55:02.571Z,868.25
2017-12-05T09:56:02.391Z,868.26
2017-12-05T09:57:02.260Z,868.24
2017-12-05T09:58:02.135Z,868.23
2017-12-05T09:59:02.000Z,868.19
2017-12-05T10:00:01.917Z,868.18
2017-12-05T10:01:01.789Z,868.21
2017-12-05T10:02:01.610Z,868.16
2017-12-05T10:03:01.526Z,868.17
2017-12-05T10:04:01.345Z,868.21
2017-12-05T10:05:01.262Z,868.21
2017-12-05T10:06:01.087Z,868.23
2017-12-05T10:07:01.003Z,868.22
2017-12-05T10:08:00.886Z,868.20
2017-12-05T10:09:00.697Z,868.17
2017-12-05T10:10:00.617Z,868.17
2017-12-05T10:11:00.440Z,868.17
2017-12-05T10:12:00.311Z,868.13
2017-12-05T10:13:00.239Z,868.16
2017-12-05T10:14:00.053Z,868.14
2017-12-05T10:14:59.925Z,868.16
2017-12-05T10:15:59.817Z,868.10
2017-12-05T10:16:59.677Z,868.14
2017-12-05T10:17:59.550Z,868.11
2017-12-05T10:18:59.469Z,868.14
2017-12-05T10:19:59.285Z,868.09
2017-12-05T10:20:59.161Z,868.10
2017-12-05T10:21:59.034Z,868.09
2017-12-05T10:22:58.957Z,868.05
2017-12-05T10:23:58.836Z,868.07
2017-12-05T10:24:58.655Z,868.03
2017-12-05T10:25:58.529Z,868.02
2017-12-05T10:26:58.405Z,868.02
2017-12-05T10:27:58.321Z,868.01
2017-12-05T10:28:58.151Z,868.00
2017-12-05T10:29:58.025Z,867.99
2017-12-05T10:30:57.899Z,868.05
2017-12-05T10:31:57.772Z,868.06
2017-12-05T10:32:57.684Z,868.05
2017-12-05T10:33:59.466Z,868.03
2017-12-05T10:34:57.394Z,868.04
2017-12-05T10:35:57.318Z,868.01
2017-12-05T10:36:57.190Z,868.05
2017-12-05T10:37:57.067Z,868.09
2017-12-05T10:38:56.943Z,868.06
2017-12-05T10:39:56.767Z,868.05
2017-12-05T10:40:56.679Z,868.06
2017-12-05T10:41:56.567Z,868.08
2017-12-05T10:42:56.431Z,868.04
2017-12-05T10:43:56.371Z,868.03
2017-12-05T10:44:56.135Z,868.01
2017-12-05T10:45:56.005Z,868.01
2017-12-05T10:46:55.882Z,867.97
2017-12-05T10:47:55.759Z,867.99
2017-12-05T10:48:55.682Z,867.98
2017-12-05T10:49:55.524Z,867.95
2017-12-05T10:50:55.392Z,867.92
2017-12-05T10:51:55.248Z,867.90
2017-12-05T10:52:55.121Z,867.88
2017-12-05T10:53:55.037Z,867.87
2017-12-05T10:54:54.866Z,867.88
2017-12-05T10:55:54.780Z,867.87
2017-12-05T10:56:54.661Z,867.88
2017-12-05T10:57:54.488Z,867.83
2017-12-05T10:58:54.415Z,867.83
2017-12-05T10:59:54.235Z,867.82
2017-12-05T11:00:54.106Z,867.82
2017-12-05T11:01:53.978Z,867.81
2017-12-05T11:02:53.855Z,867.83
2017-12-05T11:03:53.763Z,867.79
2017-12-05T11:04:53.638Z,867.76
2017-12-05T11:05:53.512Z,867.74
2017-12-05T11:06:53.384Z,867.77
2017-12-05T11:07:53.210Z,867.77
2017-12-05T11:08:53.132Z,867.76
2017-12-05T11:09:53.010Z,867.75
2017-12-05T11:10:52.832Z,867.76
2017-12-05T11:11:52.742Z,867.75
2017-12-05T11:12:52.623Z,867.74
2017-12-05T11:13:52.490Z,867.71
2017-12-05T11:14:52.367Z,867.72
2017-12-05T11:15:52.889Z,867.70
2017-12-05T11:16:52.065Z,867.71
2017-12-05T11:17:51.996Z,867.71
2017-12-05T11:18:51.810Z,867.70
2017-12-05T11:19:51.740Z,867.71
2017-12-05T11:20:51.595Z,867.73
2017-12-05T11:21:51.430Z,867.70
2017-12-05T11:22:51.356Z,867.69
2017-12-05T11:23:51.173Z,867.72
2017-12-05T11:24:51.091Z,867.69
2017-12-05T11:25:50.972Z,867.69
2017-12-05T11:26:50.794Z,867.68
2017-12-05T11:27:50.663Z,867.71
2017-12-05T11:28:50.583Z,867.69
2017-12-05T11:29:50.411Z,867.69
2017-12-05T11:30:50.339Z,867.65
2017-12-05T11:31:50.204Z,867.68
2017-12-05T11:32:50.025Z,867.66
2017-12-05T11:33:49.897Z,867.65
2017-12-05T11:34:49.772Z,867.67
2017-12-05T11:35:49.642Z,867.66
2017-12-05T11:36:49.521Z,867.64
2017-12-05T11:37:49.386Z,867.63
2017-12-05T11:38:49.306Z,867.63
2017-12-05T11:39:49.135Z,867.64
2017-12-05T11:40:49.003Z,867.64
2017-12-05T11:41:48.874Z,867.63
2017-12-05T11:42:48.746Z,867.63
2017-12-05T11:43:48.670Z,867.63
2017-12-05T11:44:48.490Z,867.58
2017-12-05T11:45:48.422Z,867.63
2017-12-05T11:46:48.283Z,867.64
2017-12-05T11:47:48.107Z,867.61
2017-12-05T11:48:47.988Z,867.58
2017-12-05T11:49:47.905Z,867.57
2017-12-05T11:50:47.725Z,867.53
2017-12-05T11:51:47.594Z,867.53
2017-12-05T11:52:47.470Z,867.56
2017-12-05T11:53:47.340Z,867.59
2017-12-05T11:54:47.257Z,867.57
2017-12-05T11:55:47.134Z,867.60
2017-12-05T11:56:46.953Z,867.58
2017-12-05T11:57:46.827Z,867.59
2017-12-05T11:58:46.749Z,867.59
2017-12-05T11:59:46.623Z,867.56
2017-12-05T12:00:46.444Z,867.57
2017-12-05T12:01:46.314Z,867.58
2017-12-05T12:02:46.235Z,867.58
2017-12-05T12:03:46.107Z,867.59
2017-12-05T12:04:45.984Z,867.58
2017-12-05T12:05:45.804Z,867.59
2017-12-05T12:06:45.724Z,867.60
2017-12-05T12:07:45.556Z,867.62
2017-12-05T12:08:45.423Z,867.63
2017-12-05T12:09:45.293Z,867.65
2017-12-05T12:10:45.204Z,867.65
2017-12-05T12:11:45.041Z,867.63
2017-12-05T12:12:44.955Z,867.63
2017-12-05T12:13:44.822Z,867.64
2017-12-05T12:14:44.701Z,867.65
2017-12-05T12:15:44.528Z,867.64
2017-12-05T12:16:44.442Z,867.61
2017-12-05T12:17:44.276Z,867.64
2017-12-05T12:18:44.185Z,867.63
2017-12-05T12:19:44.060Z,867.63
2017-12-05T12:20:43.934Z,867.60
2017-12-05T12:21:43.771Z,867.59
2017-12-05T12:22:43.679Z,867.61
2017-12-05T12:23:43.515Z,867.62
2017-12-05T12:24:43.378Z,867.60
2017-12-05T12:25:43.255Z,867.60
2017-12-05T12:26:43.164Z,867.61